sensor_id;sensor_type;location;lat;lon;timestamp;temperature;humidity
22850;DHT22;11591;44.792;10.358;2023-06-22T04:12:14;25.60;99.90
22850;DHT22;11591;44.792;10.358;2023-06-22T04:14:40;25.60;99.90
22850;DHT22;11591;44.792;10.358;2023-06-22T04:17:06;25.60;99.90
22850;DHT22;11591;44.792;10.358;2023-06-22T04:19:31;25.60;99.90
22850;DHT22;11591;44.792;10.358;2023-06-22T04:21:57;25.60;99.90
22850;DHT22;11591;44.792;10.358;2023-06-22T04:24:23;25.60;99.90
22850;DHT22;11591;44.792;10.358;2023-06-22T04:26:49;25.60;99.90
22850;DHT22;11591;44.792;10.358;2023-06-22T04:29:20;25.60;99.90
22850;DHT22;11591;44.792;10.358;2023-06-22T04:31:54;25.60;99.90
22850;DHT22;11591;44.792;10.358;2023-06-22T04:34:21;25.50;99.90
22850;DHT22;11591;44.792;10.358;2023-06-22T04:36:47;25.50;99.90
22850;DHT22;11591;44.792;10.358;2023-06-22T04:39:13;25.50;99.90
22850;DHT22;11591;44.792;10.358;2023-06-22T04:41:39;25.50;99.90
22850;DHT22;11591;44.792;10.358;2023-06-22T04:44:17;25.60;99.90
22850;DHT22;11591;44.792;10.358;2023-06-22T04:46:53;25.60;99.90
22850;DHT22;11591;44.792;10.358;2023-06-22T04:49:34;25.60;99.90
22850;DHT22;11591;44.792;10.358;2023-06-22T04:52:12;25.70;99.90
22850;DHT22;11591;44.792;10.358;2023-06-22T04:54:39;25.70;99.90
22850;DHT22;11591;44.792;10.358;2023-06-22T04:57:13;25.70;99.90
22850;DHT22;11591;44.792;10.358;2023-06-22T04:59:39;25.70;99.90
22850;DHT22;11591;44.792;10.358;2023-06-22T05:02:07;25.70;99.90
22850;DHT22;11591;44.792;10.358;2023-06-22T05:04:34;25.60;99.90
22850;DHT22;11591;44.792;10.358;2023-06-22T05:07:06;25.60;99.90
22850;DHT22;11591;44.792;10.358;2023-06-22T05:09:32;25.60;99.90
22850;DHT22;11591;44.792;10.358;2023-06-22T05:11:59;25.70;99.90
22850;DHT22;11591;44.792;10.358;2023-06-22T05:14:28;25.70;99.90
22850;DHT22;11591;44.792;10.358;2023-06-22T05:16:54;25.80;99.90
22850;DHT22;11591;44.792;10.358;2023-06-22T05:19:24;25.90;99.90
22850;DHT22;11591;44.792;10.358;2023-06-22T05:21:50;26.00;99.90
22850;DHT22;11591;44.792;10.358;2023-06-22T05:24:16;26.00;99.90
22850;DHT22;11591;44.792;10.358;2023-06-22T05:26:42;26.00;99.90
22850;DHT22;11591;44.792;10.358;2023-06-22T05:29:07;26.10;99.90
22850;DHT22;11591;44.792;10.358;2023-06-22T05:31:33;26.10;99.90
22850;DHT22;11591;44.792;10.358;2023-06-22T05:33:59;26.20;99.90
22850;DHT22;11591;44.792;10.358;2023-06-22T05:36:26;26.20;99.90
22850;DHT22;11591;44.792;10.358;2023-06-22T05:38:52;26.30;99.90
22850;DHT22;11591;44.792;10.358;2023-06-22T05:41:18;26.30;99.90
22850;DHT22;11591;44.792;10.358;2023-06-22T05:43:44;26.30;99.90
22850;DHT22;11591;44.792;10.358;2023-06-22T05:46:10;26.20;99.90
22850;DHT22;11591;44.792;10.358;2023-06-22T05:48:36;26.20;99.90
22850;DHT22;11591;44.792;10.358;2023-06-22T05:51:02;26.10;99.90
22850;DHT22;11591;44.792;10.358;2023-06-22T05:53:27;26.10;99.90
22850;DHT22;11591;44.792;10.358;2023-06-22T05:55:53;26.10;99.90
22850;DHT22;11591;44.792;10.358;2023-06-22T05:58:19;26.20;99.90
22850;DHT22;11591;44.792;10.358;2023-06-22T06:00:45;26.20;99.90
22850;DHT22;11591;44.792;10.358;2023-06-22T06:03:12;26.30;99.90
22850;DHT22;11591;44.792;10.358;2023-06-22T06:05:42;26.30;99.90
22850;DHT22;11591;44.792;10.358;2023-06-22T06:08:08;26.40;99.90
22850;DHT22;11591;44.792;10.358;2023-06-22T06:10:36;26.40;99.90
22850;DHT22;11591;44.792;10.358;2023-06-22T06:13:02;26.50;99.90
22850;DHT22;11591;44.792;10.358;2023-06-22T06:15:30;26.50;99.90
22850;DHT22;11591;44.792;10.358;2023-06-22T06:17:56;26.60;99.90
22850;DHT22;11591;44.792;10.358;2023-06-22T06:20:24;26.60;99.90
22850;DHT22;11591;44.792;10.358;2023-06-22T06:22:50;26.60;99.90
22850;DHT22;11591;44.792;10.358;2023-06-22T06:25:16;26.60;99.90
22850;DHT22;11591;44.792;10.358;2023-06-22T06:27:46;26.60;99.90
22850;DHT22;11591;44.792;10.358;2023-06-22T06:30:13;26.70;99.90
22850;DHT22;11591;44.792;10.358;2023-06-22T06:32:39;26.70;99.90
22850;DHT22;11591;44.792;10.358;2023-06-22T06:35:06;26.80;99.90
22850;DHT22;11591;44.792;10.358;2023-06-22T06:37:36;26.90;99.90
22850;DHT22;11591;44.792;10.358;2023-06-22T06:40:06;26.90;99.90
22850;DHT22;11591;44.792;10.358;2023-06-22T06:42:37;27.10;99.90
22850;DHT22;11591;44.792;10.358;2023-06-22T06:45:05;27.10;99.90
22850;DHT22;11591;44.792;10.358;2023-06-22T06:47:31;27.20;99.90
22850;DHT22;11591;44.792;10.358;2023-06-22T06:49:56;27.30;99.90
22850;DHT22;11591;44.792;10.358;2023-06-22T06:52:22;27.40;99.90
22850;DHT22;11591;44.792;10.358;2023-06-22T06:54:48;27.40;99.90
22850;DHT22;11591;44.792;10.358;2023-06-22T06:57:14;27.40;99.90
22850;DHT22;11591;44.792;10.358;2023-06-22T06:59:41;27.50;99.90
22850;DHT22;11591;44.792;10.358;2023-06-22T07:02:07;27.50;99.90
22850;DHT22;11591;44.792;10.358;2023-06-22T07:04:33;27.50;99.90
22850;DHT22;11591;44.792;10.358;2023-06-22T07:07:01;27.60;99.90
22850;DHT22;11591;44.792;10.358;2023-06-22T07:09:27;27.60;99.90
22850;DHT22;11591;44.792;10.358;2023-06-22T07:11:53;27.70;99.90
22850;DHT22;11591;44.792;10.358;2023-06-22T07:14:19;27.70;99.90
22850;DHT22;11591;44.792;10.358;2023-06-22T07:16:45;27.80;99.90
22850;DHT22;11591;44.792;10.358;2023-06-22T07:19:13;27.70;99.90
22850;DHT22;11591;44.792;10.358;2023-06-22T07:21:39;27.70;99.90
22850;DHT22;11591;44.792;10.358;2023-06-22T07:24:06;27.70;99.90
22850;DHT22;11591;44.792;10.358;2023-06-22T07:26:32;27.80;99.90
22850;DHT22;11591;44.792;10.358;2023-06-22T07:28:58;27.80;99.90
22850;DHT22;11591;44.792;10.358;2023-06-22T07:31:25;27.80;99.90
22850;DHT22;11591;44.792;10.358;2023-06-22T07:33:51;27.80;99.90
22850;DHT22;11591;44.792;10.358;2023-06-22T07:36:17;27.90;99.90
22850;DHT22;11591;44.792;10.358;2023-06-22T07:38:43;27.90;99.90
22850;DHT22;11591;44.792;10.358;2023-06-22T07:41:09;27.90;99.90
22850;DHT22;11591;44.792;10.358;2023-06-22T07:43:35;28.00;99.90
22850;DHT22;11591;44.792;10.358;2023-06-22T07:46:05;27.90;99.90
22850;DHT22;11591;44.792;10.358;2023-06-22T07:48:31;27.90;99.90
22850;DHT22;11591;44.792;10.358;2023-06-22T07:50:57;27.90;99.90
22850;DHT22;11591;44.792;10.358;2023-06-22T07:53:23;27.90;99.90
22850;DHT22;11591;44.792;10.358;2023-06-22T07:55:50;27.90;99.90
22850;DHT22;11591;44.792;10.358;2023-06-22T07:58:15;27.90;99.90
22850;DHT22;11591;44.792;10.358;2023-06-22T08:00:41;28.00;99.90
22850;DHT22;11591;44.792;10.358;2023-06-22T08:03:07;28.00;99.90
22850;DHT22;11591;44.792;10.358;2023-06-22T08:05:33;28.10;99.90
22850;DHT22;11591;44.792;10.358;2023-06-22T08:07:59;28.20;99.90
22850;DHT22;11591;44.792;10.358;2023-06-22T08:10:25;28.20;99.90
22850;DHT22;11591;44.792;10.358;2023-06-22T08:12:51;28.20;99.90
22850;DHT22;11591;44.792;10.358;2023-06-22T08:15:18;28.30;99.90
22850;DHT22;11591;44.792;10.358;2023-06-22T08:17:44;28.30;99.90
22850;DHT22;11591;44.792;10.358;2023-06-22T08:20:13;28.40;99.90
22850;DHT22;11591;44.792;10.358;2023-06-22T08:22:41;28.40;99.90
22850;DHT22;11591;44.792;10.358;2023-06-22T08:25:08;28.40;99.90
22850;DHT22;11591;44.792;10.358;2023-06-22T08:27:34;28.40;99.90
22850;DHT22;11591;44.792;10.358;2023-06-22T08:30:01;28.50;99.90
22850;DHT22;11591;44.792;10.358;2023-06-22T08:32:27;28.50;99.90
22850;DHT22;11591;44.792;10.358;2023-06-22T08:34:57;28.50;99.90
22850;DHT22;11591;44.792;10.358;2023-06-22T08:37:23;28.50;99.90
22850;DHT22;11591;44.792;10.358;2023-06-22T08:39:50;28.50;99.90
22850;DHT22;11591;44.792;10.358;2023-06-22T08:42:16;28.50;99.90
22850;DHT22;11591;44.792;10.358;2023-06-22T08:44:42;28.60;99.90
22850;DHT22;11591;44.792;10.358;2023-06-22T08:47:08;28.60;99.90
22850;DHT22;11591;44.792;10.358;2023-06-22T08:49:33;28.60;99.90
22850;DHT22;11591;44.792;10.358;2023-06-22T08:51:59;28.60;99.90
22850;DHT22;11591;44.792;10.358;2023-06-22T08:54:25;28.70;99.90
22850;DHT22;11591;44.792;10.358;2023-06-22T08:56:51;28.80;99.90
22850;DHT22;11591;44.792;10.358;2023-06-22T08:59:16;28.90;99.90
22850;DHT22;11591;44.792;10.358;2023-06-22T09:01:42;28.90;99.90
22850;DHT22;11591;44.792;10.358;2023-06-22T09:04:11;28.90;99.90
22850;DHT22;11591;44.792;10.358;2023-06-22T09:06:37;28.90;99.90
22850;DHT22;11591;44.792;10.358;2023-06-22T09:09:10;28.90;99.90
22850;DHT22;11591;44.792;10.358;2023-06-22T09:11:36;28.90;99.90
22850;DHT22;11591;44.792;10.358;2023-06-22T09:14:02;29.00;99.90
22850;DHT22;11591;44.792;10.358;2023-06-22T09:16:29;29.10;99.90
22850;DHT22;11591;44.792;10.358;2023-06-22T09:18:55;29.00;99.90
22850;DHT22;11591;44.792;10.358;2023-06-22T09:21:21;29.10;99.90
22850;DHT22;11591;44.792;10.358;2023-06-22T09:23:47;29.10;99.90
22850;DHT22;11591;44.792;10.358;2023-06-22T09:26:17;29.10;99.90
22850;DHT22;11591;44.792;10.358;2023-06-22T09:28:43;29.10;99.90
22850;DHT22;11591;44.792;10.358;2023-06-22T09:31:09;29.10;99.90
22850;DHT22;11591;44.792;10.358;2023-06-22T09:33:35;29.20;99.90
22850;DHT22;11591;44.792;10.358;2023-06-22T09:36:01;29.20;99.90
22850;DHT22;11591;44.792;10.358;2023-06-22T09:38:27;29.30;99.90
22850;DHT22;11591;44.792;10.358;2023-06-22T09:40:53;29.30;99.90
22850;DHT22;11591;44.792;10.358;2023-06-22T09:43:18;29.30;99.90
22850;DHT22;11591;44.792;10.358;2023-06-22T09:45:44;29.40;99.90
22850;DHT22;11591;44.792;10.358;2023-06-22T09:48:10;29.40;99.90
22850;DHT22;11591;44.792;10.358;2023-06-22T09:50:36;29.50;99.90
22850;DHT22;11591;44.792;10.358;2023-06-22T09:53:02;29.50;99.90
22850;DHT22;11591;44.792;10.358;2023-06-22T09:55:28;29.50;99.90
22850;DHT22;11591;44.792;10.358;2023-06-22T09:57:54;29.60;99.90
22850;DHT22;11591;44.792;10.358;2023-06-22T10:00:21;29.60;99.90
22850;DHT22;11591;44.792;10.358;2023-06-22T10:02:47;29.60;99.90
22850;DHT22;11591;44.792;10.358;2023-06-22T10:05:13;29.70;99.90
22850;DHT22;11591;44.792;10.358;2023-06-22T10:07:40;29.70;99.90
22850;DHT22;11591;44.792;10.358;2023-06-22T10:10:09;29.80;99.90
22850;DHT22;11591;44.792;10.358;2023-06-22T10:12:35;29.80;99.90
22850;DHT22;11591;44.792;10.358;2023-06-22T10:15:01;29.80;99.90
22850;DHT22;11591;44.792;10.358;2023-06-22T10:17:27;29.80;99.90
22850;DHT22;11591;44.792;10.358;2023-06-22T10:19:52;29.80;99.90
22850;DHT22;11591;44.792;10.358;2023-06-22T10:22:18;29.80;99.90
22850;DHT22;11591;44.792;10.358;2023-06-22T10:24:44;29.80;99.90
22850;DHT22;11591;44.792;10.358;2023-06-22T10:27:13;29.90;99.90
22850;DHT22;11591;44.792;10.358;2023-06-22T10:29:41;29.90;99.90
22850;DHT22;11591;44.792;10.358;2023-06-22T10:32:07;29.90;99.90
22850;DHT22;11591;44.792;10.358;2023-06-22T10:34:33;29.90;99.90
22850;DHT22;11591;44.792;10.358;2023-06-22T10:36:59;30.00;99.90
22850;DHT22;11591;44.792;10.358;2023-06-22T10:39:25;30.00;99.90
22850;DHT22;11591;44.792;10.358;2023-06-22T10:41:50;30.00;99.90
22850;DHT22;11591;44.792;10.358;2023-06-22T10:44:16;30.10;99.90
22850;DHT22;11591;44.792;10.358;2023-06-22T10:46:43;30.10;99.90
22850;DHT22;11591;44.792;10.358;2023-06-22T10:49:08;30.10;99.90
22850;DHT22;11591;44.792;10.358;2023-06-22T10:51:34;30.10;99.90
22850;DHT22;11591;44.792;10.358;2023-06-22T10:54:00;30.10;99.90
22850;DHT22;11591;44.792;10.358;2023-06-22T10:56:26;30.20;99.90
22850;DHT22;11591;44.792;10.358;2023-06-22T10:58:52;30.20;99.90
22850;DHT22;11591;44.792;10.358;2023-06-22T11:01:17;30.20;99.90
22850;DHT22;11591;44.792;10.358;2023-06-22T11:03:43;30.20;99.90
22850;DHT22;11591;44.792;10.358;2023-06-22T11:06:09;30.30;99.90
22850;DHT22;11591;44.792;10.358;2023-06-22T11:08:34;30.30;99.90
22850;DHT22;11591;44.792;10.358;2023-06-22T11:11:00;30.40;99.90
22850;DHT22;11591;44.792;10.358;2023-06-22T11:13:26;30.40;99.90
22850;DHT22;11591;44.792;10.358;2023-06-22T11:15:52;30.40;99.90
22850;DHT22;11591;44.792;10.358;2023-06-22T11:18:18;30.50;99.80
22850;DHT22;11591;44.792;10.358;2023-06-22T11:20:43;30.40;99.70
22850;DHT22;11591;44.792;10.358;2023-06-22T11:23:10;30.50;99.90
22850;DHT22;11591;44.792;10.358;2023-06-22T11:25:37;30.50;99.90
22850;DHT22;11591;44.792;10.358;2023-06-22T11:28:04;30.50;99.90
22850;DHT22;11591;44.792;10.358;2023-06-22T11:30:30;30.60;99.90
22850;DHT22;11591;44.792;10.358;2023-06-22T11:32:59;30.50;99.90
22850;DHT22;11591;44.792;10.358;2023-06-22T11:35:25;30.60;99.90
22850;DHT22;11591;44.792;10.358;2023-06-22T11:37:51;30.60;99.90
22850;DHT22;11591;44.792;10.358;2023-06-22T11:40:17;30.60;99.90
22850;DHT22;11591;44.792;10.358;2023-06-22T11:42:43;30.80;99.90
22850;DHT22;11591;44.792;10.358;2023-06-22T11:45:09;30.80;99.90
22850;DHT22;11591;44.792;10.358;2023-06-22T11:47:35;31.00;99.90
22850;DHT22;11591;44.792;10.358;2023-06-22T11:50:02;31.00;99.90
22850;DHT22;11591;44.792;10.358;2023-06-22T11:52:28;31.10;99.90
22850;DHT22;11591;44.792;10.358;2023-06-22T11:54:54;31.20;99.90
22850;DHT22;11591;44.792;10.358;2023-06-22T11:57:20;31.30;99.90
22850;DHT22;11591;44.792;10.358;2023-06-22T11:59:46;31.40;99.80
22850;DHT22;11591;44.792;10.358;2023-06-22T12:02:11;31.50;99.80
22850;DHT22;11591;44.792;10.358;2023-06-22T12:04:37;31.50;99.90
22850;DHT22;11591;44.792;10.358;2023-06-22T12:07:03;31.50;99.80
22850;DHT22;11591;44.792;10.358;2023-06-22T12:09:29;31.60;99.80
22850;DHT22;11591;44.792;10.358;2023-06-22T12:11:55;31.60;99.60
22850;DHT22;11591;44.792;10.358;2023-06-22T12:14:21;31.70;99.60
22850;DHT22;11591;44.792;10.358;2023-06-22T12:16:47;31.80;99.80
22850;DHT22;11591;44.792;10.358;2023-06-22T12:19:13;31.80;99.80
22850;DHT22;11591;44.792;10.358;2023-06-22T12:21:39;31.90;99.80
22850;DHT22;11591;44.792;10.358;2023-06-22T12:24:06;31.90;99.70
22850;DHT22;11591;44.792;10.358;2023-06-22T12:26:32;32.00;99.60
22850;DHT22;11591;44.792;10.358;2023-06-22T12:28:58;32.00;99.80
22850;DHT22;11591;44.792;10.358;2023-06-22T12:31:23;32.10;99.80
22850;DHT22;11591;44.792;10.358;2023-06-22T12:33:49;32.10;99.90
22850;DHT22;11591;44.792;10.358;2023-06-22T12:36:15;32.10;99.60
22850;DHT22;11591;44.792;10.358;2023-06-22T12:38:42;32.10;99.50
22850;DHT22;11591;44.792;10.358;2023-06-22T12:41:07;32.20;99.30
22850;DHT22;11591;44.792;10.358;2023-06-22T12:43:33;32.20;99.30
22850;DHT22;11591;44.792;10.358;2023-06-22T12:45:59;32.20;99.10
22850;DHT22;11591;44.792;10.358;2023-06-22T12:48:26;32.10;98.90
22850;DHT22;11591;44.792;10.358;2023-06-22T12:50:53;32.20;99.10
22850;DHT22;11591;44.792;10.358;2023-06-22T12:53:19;32.30;99.70
22850;DHT22;11591;44.792;10.358;2023-06-22T12:55:44;32.30;99.90
22850;DHT22;11591;44.792;10.358;2023-06-22T12:58:10;32.30;99.90
22850;DHT22;11591;44.792;10.358;2023-06-22T13:00:37;32.50;99.30
22850;DHT22;11591;44.792;10.358;2023-06-22T13:03:03;32.50;99.10
22850;DHT22;11591;44.792;10.358;2023-06-22T13:05:29;32.60;99.50
22850;DHT22;11591;44.792;10.358;2023-06-22T13:07:56;32.60;99.80
22850;DHT22;11591;44.792;10.358;2023-06-22T13:10:21;32.60;99.20
22850;DHT22;11591;44.792;10.358;2023-06-22T13:12:47;32.70;99.60
22850;DHT22;11591;44.792;10.358;2023-06-22T13:15:13;32.60;99.50
22850;DHT22;11591;44.792;10.358;2023-06-22T13:17:39;32.60;99.40
22850;DHT22;11591;44.792;10.358;2023-06-22T13:20:05;32.60;99.50
22850;DHT22;11591;44.792;10.358;2023-06-22T13:22:35;32.60;99.90
22850;DHT22;11591;44.792;10.358;2023-06-22T13:25:09;32.70;99.90
22850;DHT22;11591;44.792;10.358;2023-06-22T13:27:39;32.70;99.90
22850;DHT22;11591;44.792;10.358;2023-06-22T13:30:05;32.70;99.90
22850;DHT22;11591;44.792;10.358;2023-06-22T13:32:31;32.80;99.90
22850;DHT22;11591;44.792;10.358;2023-06-22T13:34:57;32.80;99.70
22850;DHT22;11591;44.792;10.358;2023-06-22T13:37:23;32.80;99.60
22850;DHT22;11591;44.792;10.358;2023-06-22T13:39:49;32.80;99.60
22850;DHT22;11591;44.792;10.358;2023-06-22T13:42:15;32.80;99.50
22850;DHT22;11591;44.792;10.358;2023-06-22T13:44:40;32.70;99.20
22850;DHT22;11591;44.792;10.358;2023-06-22T13:47:07;32.70;99.30
22850;DHT22;11591;44.792;10.358;2023-06-22T13:49:33;32.70;99.50
22850;DHT22;11591;44.792;10.358;2023-06-22T13:51:59;32.70;99.60
22850;DHT22;11591;44.792;10.358;2023-06-22T13:54:25;32.60;99.90
22850;DHT22;11591;44.792;10.358;2023-06-22T13:56:51;32.70;99.80
22850;DHT22;11591;44.792;10.358;2023-06-22T13:59:17;32.60;99.80
22850;DHT22;11591;44.792;10.358;2023-06-22T14:01:42;32.60;99.70
22850;DHT22;11591;44.792;10.358;2023-06-22T14:04:09;32.50;99.70
22850;DHT22;11591;44.792;10.358;2023-06-22T14:06:35;32.50;99.70
22850;DHT22;11591;44.792;10.358;2023-06-22T14:09:01;32.50;99.80
22850;DHT22;11591;44.792;10.358;2023-06-22T14:11:27;32.50;99.90
22850;DHT22;11591;44.792;10.358;2023-06-22T14:13:53;32.50;99.90
22850;DHT22;11591;44.792;10.358;2023-06-22T14:16:19;32.50;99.90
22850;DHT22;11591;44.792;10.358;2023-06-22T14:18:45;32.50;99.90
22850;DHT22;11591;44.792;10.358;2023-06-22T14:21:11;32.60;99.90
22850;DHT22;11591;44.792;10.358;2023-06-22T14:23:36;32.70;99.90
22850;DHT22;11591;44.792;10.358;2023-06-22T14:26:03;32.70;99.90
22850;DHT22;11591;44.792;10.358;2023-06-22T14:28:29;32.70;99.90
22850;DHT22;11591;44.792;10.358;2023-06-22T14:30:55;32.70;99.70
22850;DHT22;11591;44.792;10.358;2023-06-22T14:33:22;32.80;99.70
22850;DHT22;11591;44.792;10.358;2023-06-22T14:35:48;32.70;99.80
22850;DHT22;11591;44.792;10.358;2023-06-22T14:38:14;32.70;99.90
22850;DHT22;11591;44.792;10.358;2023-06-22T14:40:40;32.70;99.80
22850;DHT22;11591;44.792;10.358;2023-06-22T14:43:06;32.70;99.90
22850;DHT22;11591;44.792;10.358;2023-06-22T14:45:31;32.70;99.90
22850;DHT22;11591;44.792;10.358;2023-06-22T14:47:57;32.70;99.90
22850;DHT22;11591;44.792;10.358;2023-06-22T14:50:23;32.70;99.90
22850;DHT22;11591;44.792;10.358;2023-06-22T14:52:49;32.70;99.90
22850;DHT22;11591;44.792;10.358;2023-06-22T14:55:14;32.70;99.90
22850;DHT22;11591;44.792;10.358;2023-06-22T14:57:40;32.60;99.90
22850;DHT22;11591;44.792;10.358;2023-06-22T15:00:06;32.60;99.90
22850;DHT22;11591;44.792;10.358;2023-06-22T15:02:32;32.50;99.90
22850;DHT22;11591;44.792;10.358;2023-06-22T15:04:58;32.60;99.90
22850;DHT22;11591;44.792;10.358;2023-06-22T15:07:24;32.50;99.90
22850;DHT22;11591;44.792;10.358;2023-06-22T15:09:50;32.60;99.90
22850;DHT22;11591;44.792;10.358;2023-06-22T15:12:16;32.60;99.90
22850;DHT22;11591;44.792;10.358;2023-06-22T15:14:42;32.50;99.90
22850;DHT22;11591;44.792;10.358;2023-06-22T15:17:08;32.60;99.90
22850;DHT22;11591;44.792;10.358;2023-06-22T15:19:35;32.60;99.90
22850;DHT22;11591;44.792;10.358;2023-06-22T15:22:04;32.70;99.90
22850;DHT22;11591;44.792;10.358;2023-06-22T15:24:30;32.70;99.90
22850;DHT22;11591;44.792;10.358;2023-06-22T15:26:56;32.70;99.90
22850;DHT22;11591;44.792;10.358;2023-06-22T15:29:21;32.70;99.90
22850;DHT22;11591;44.792;10.358;2023-06-22T15:31:47;32.70;99.90
22850;DHT22;11591;44.792;10.358;2023-06-22T15:34:13;32.70;99.90
22850;DHT22;11591;44.792;10.358;2023-06-22T15:36:39;32.70;99.90
22850;DHT22;11591;44.792;10.358;2023-06-22T15:39:05;32.70;99.90
22850;DHT22;11591;44.792;10.358;2023-06-22T15:41:31;32.70;99.90
22850;DHT22;11591;44.792;10.358;2023-06-22T15:43:56;32.60;99.90
22850;DHT22;11591;44.792;10.358;2023-06-22T15:46:22;32.60;99.90
22850;DHT22;11591;44.792;10.358;2023-06-22T15:48:48;32.60;99.90
22850;DHT22;11591;44.792;10.358;2023-06-22T15:51:14;32.60;99.90
22850;DHT22;11591;44.792;10.358;2023-06-22T15:53:42;32.60;99.90
22850;DHT22;11591;44.792;10.358;2023-06-22T15:56:08;32.60;99.90
22850;DHT22;11591;44.792;10.358;2023-06-22T15:58:36;32.60;99.90
22850;DHT22;11591;44.792;10.358;2023-06-22T16:01:02;32.60;99.90
22850;DHT22;11591;44.792;10.358;2023-06-22T16:03:29;32.60;99.90
22850;DHT22;11591;44.792;10.358;2023-06-22T16:05:55;32.60;99.90
22850;DHT22;11591;44.792;10.358;2023-06-22T16:08:20;32.60;99.90
22850;DHT22;11591;44.792;10.358;2023-06-22T16:10:46;32.60;99.90
22850;DHT22;11591;44.792;10.358;2023-06-22T16:13:12;32.70;99.90
22850;DHT22;11591;44.792;10.358;2023-06-22T16:15:38;32.70;99.90
22850;DHT22;11591;44.792;10.358;2023-06-22T16:18:04;32.60;99.90
22850;DHT22;11591;44.792;10.358;2023-06-22T16:20:30;32.70;99.90
22850;DHT22;11591;44.792;10.358;2023-06-22T16:22:56;32.70;99.90
22850;DHT22;11591;44.792;10.358;2023-06-22T16:25:22;32.80;99.90
22850;DHT22;11591;44.792;10.358;2023-06-22T16:27:47;32.80;99.90
22850;DHT22;11591;44.792;10.358;2023-06-22T16:30:13;32.80;99.90
22850;DHT22;11591;44.792;10.358;2023-06-22T16:32:48;32.90;99.90
22850;DHT22;11591;44.792;10.358;2023-06-22T16:35:14;32.90;99.90
22850;DHT22;11591;44.792;10.358;2023-06-22T16:37:40;33.00;99.90
22850;DHT22;11591;44.792;10.358;2023-06-22T16:40:06;33.10;99.90
22850;DHT22;11591;44.792;10.358;2023-06-22T16:42:34;33.20;99.90
22850;DHT22;11591;44.792;10.358;2023-06-22T16:45:00;33.30;99.90
22850;DHT22;11591;44.792;10.358;2023-06-22T16:47:26;33.50;99.90
22850;DHT22;11591;44.792;10.358;2023-06-22T16:49:53;33.60;99.90
22850;DHT22;11591;44.792;10.358;2023-06-22T16:52:19;33.70;99.90
22850;DHT22;11591;44.792;10.358;2023-06-22T16:54:46;33.80;99.80
22850;DHT22;11591;44.792;10.358;2023-06-22T16:57:14;33.90;99.70
22850;DHT22;11591;44.792;10.358;2023-06-22T16:59:40;33.90;99.80
22850;DHT22;11591;44.792;10.358;2023-06-22T17:02:13;34.00;99.70
22850;DHT22;11591;44.792;10.358;2023-06-22T17:04:42;34.10;99.80
22850;DHT22;11591;44.792;10.358;2023-06-22T17:07:13;34.00;99.70
22850;DHT22;11591;44.792;10.358;2023-06-22T17:09:42;34.00;99.30
22850;DHT22;11591;44.792;10.358;2023-06-22T17:12:08;34.00;99.30
22850;DHT22;11591;44.792;10.358;2023-06-22T17:14:34;33.90;99.20
22850;DHT22;11591;44.792;10.358;2023-06-22T17:17:02;33.90;99.20
22850;DHT22;11591;44.792;10.358;2023-06-22T17:19:29;33.70;99.20
22850;DHT22;11591;44.792;10.358;2023-06-22T17:21:54;33.60;99.50
22850;DHT22;11591;44.792;10.358;2023-06-22T17:24:20;33.50;99.30
22850;DHT22;11591;44.792;10.358;2023-06-22T17:26:49;33.50;99.40
22850;DHT22;11591;44.792;10.358;2023-06-22T17:29:16;33.50;99.50
22850;DHT22;11591;44.792;10.358;2023-06-22T17:31:43;33.50;99.60
22850;DHT22;11591;44.792;10.358;2023-06-22T17:34:16;33.40;99.80
22850;DHT22;11591;44.792;10.358;2023-06-22T17:36:47;33.40;99.80
22850;DHT22;11591;44.792;10.358;2023-06-22T17:39:14;33.50;99.80
22850;DHT22;11591;44.792;10.358;2023-06-22T17:41:44;33.40;99.20
22850;DHT22;11591;44.792;10.358;2023-06-22T17:44:12;33.40;99.30
22850;DHT22;11591;44.792;10.358;2023-06-22T17:46:40;33.30;99.60
22850;DHT22;11591;44.792;10.358;2023-06-22T17:49:12;33.30;99.90
22850;DHT22;11591;44.792;10.358;2023-06-22T17:51:41;33.10;99.90
22850;DHT22;11591;44.792;10.358;2023-06-22T17:54:08;33.00;99.90
22850;DHT22;11591;44.792;10.358;2023-06-22T17:56:34;32.90;99.90
22850;DHT22;11591;44.792;10.358;2023-06-22T17:59:00;32.80;99.90
22850;DHT22;11591;44.792;10.358;2023-06-22T18:01:31;32.80;99.90
22850;DHT22;11591;44.792;10.358;2023-06-22T18:04:10;32.70;99.90
22850;DHT22;11591;44.792;10.358;2023-06-22T18:06:38;32.60;99.90
22850;DHT22;11591;44.792;10.358;2023-06-22T18:09:05;32.60;99.90
22850;DHT22;11591;44.792;10.358;2023-06-22T18:11:54;32.50;99.90
22850;DHT22;11591;44.792;10.358;2023-06-22T18:14:19;32.40;99.90
22850;DHT22;11591;44.792;10.358;2023-06-22T18:16:47;32.30;99.90
22850;DHT22;11591;44.792;10.358;2023-06-22T18:19:14;32.30;99.90
22850;DHT22;11591;44.792;10.358;2023-06-22T18:21:40;32.30;99.90
22850;DHT22;11591;44.792;10.358;2023-06-22T18:24:07;32.30;99.90
22850;DHT22;11591;44.792;10.358;2023-06-22T18:26:36;32.30;99.90
22850;DHT22;11591;44.792;10.358;2023-06-22T18:29:01;32.30;99.90
22850;DHT22;11591;44.792;10.358;2023-06-22T18:31:28;32.20;99.90
22850;DHT22;11591;44.792;10.358;2023-06-22T18:33:56;32.20;99.90
22850;DHT22;11591;44.792;10.358;2023-06-22T18:36:29;32.30;99.90
22850;DHT22;11591;44.792;10.358;2023-06-22T18:39:00;32.20;99.90
22850;DHT22;11591;44.792;10.358;2023-06-22T18:41:38;32.20;99.90
22850;DHT22;11591;44.792;10.358;2023-06-22T18:46:54;32.10;99.90
22850;DHT22;11591;44.792;10.358;2023-06-22T18:49:25;32.00;99.90
22850;DHT22;11591;44.792;10.358;2023-06-22T18:52:02;32.00;99.90
22850;DHT22;11591;44.792;10.358;2023-06-22T18:54:48;32.00;99.90
22850;DHT22;11591;44.792;10.358;2023-06-22T18:57:21;32.00;99.90
22850;DHT22;11591;44.792;10.358;2023-06-22T19:02:45;31.90;99.90
22850;DHT22;11591;44.792;10.358;2023-06-22T19:05:15;31.80;99.90
22850;DHT22;11591;44.792;10.358;2023-06-22T19:13:29;31.60;99.90
22850;DHT22;11591;44.792;10.358;2023-06-22T19:18:28;31.40;99.90
22850;DHT22;11591;44.792;10.358;2023-06-22T19:21:07;31.40;99.90
22850;DHT22;11591;44.792;10.358;2023-06-22T19:23:38;31.20;99.60
22850;DHT22;11591;44.792;10.358;2023-06-22T19:26:12;31.20;99.70
22850;DHT22;11591;44.792;10.358;2023-06-22T19:28:47;31.10;99.40
22850;DHT22;11591;44.792;10.358;2023-06-22T19:31:14;31.00;99.20
22850;DHT22;11591;44.792;10.358;2023-06-22T19:33:40;31.00;99.40
22850;DHT22;11591;44.792;10.358;2023-06-22T19:36:06;30.90;99.00
22850;DHT22;11591;44.792;10.358;2023-06-22T19:38:32;30.80;99.00